createdAt,value
2023-12-17T00:00:07.620Z,7.89
2023-12-17T00:02:34.469Z,7.89
2023-12-17T00:05:01.389Z,7.94
2023-12-17T00:07:28.276Z,7.95
2023-12-17T00:09:57.012Z,7.96
2023-12-17T00:12:25.307Z,7.93
2023-12-17T00:14:55.228Z,7.94
2023-12-17T00:17:22.118Z,7.92
2023-12-17T00:19:51.364Z,7.96
2023-12-17T00:22:18.256Z,7.87
2023-12-17T00:24:45.087Z,7.85
2023-12-17T00:27:12.249Z,7.88
2023-12-17T00:29:39.061Z,7.87
2023-12-17T00:32:06.444Z,7.91
2023-12-17T00:34:39.331Z,7.94
2023-12-17T00:37:06.274Z,7.92
2023-12-17T00:39:33.107Z,7.94
2023-12-17T00:42:13.304Z,7.92
2023-12-17T00:44:40.240Z,7.90
2023-12-17T00:47:07.053Z,7.87
2023-12-17T00:49:36.593Z,7.87
2023-12-17T00:52:03.592Z,7.85
2023-12-17T00:54:34.230Z,7.91
2023-12-17T00:57:01.196Z,7.84
2023-12-17T00:59:31.263Z,7.84
2023-12-17T01:01:58.087Z,7.88
2023-12-17T01:04:24.958Z,7.87
2023-12-17T01:06:51.923Z,7.88
2023-12-17T01:09:23.125Z,7.86
2023-12-17T01:11:50.355Z,7.89
2023-12-17T01:14:17.199Z,7.90
2023-12-17T01:16:44.084Z,7.89
2023-12-17T01:19:11.068Z,7.89
2023-12-17T01:21:37.970Z,7.91
2023-12-17T01:24:07.196Z,7.90
2023-12-17T01:26:34.090Z,7.87
2023-12-17T01:29:00.918Z,7.90
2023-12-17T01:31:27.783Z,7.85
2023-12-17T01:33:55.070Z,7.85
2023-12-17T01:36:21.965Z,7.84
2023-12-17T01:38:50.086Z,7.83
2023-12-17T01:41:16.932Z,7.84
2023-12-17T01:43:46.293Z,7.82
2023-12-17T01:46:16.724Z,7.81
2023-12-17T01:48:45.670Z,7.83
2023-12-17T01:51:13.457Z,7.79
2023-12-17T01:53:41.242Z,7.79
2023-12-17T01:56:09.032Z,7.83
2023-12-17T01:58:36.116Z,7.83
2023-12-17T02:01:09.094Z,7.74
2023-12-17T02:03:45.209Z,7.76
2023-12-17T02:06:14.969Z,7.74
2023-12-17T02:08:47.785Z,7.74
2023-12-17T02:11:17.999Z,7.74
2023-12-17T02:13:45.939Z,7.72
2023-12-17T02:16:18.664Z,7.68
2023-12-17T02:18:47.913Z,7.68
2023-12-17T02:21:16.644Z,7.66
2023-12-17T02:23:43.565Z,7.64
2023-12-17T02:26:18.080Z,7.69
2023-12-17T02:28:46.957Z,7.67
2023-12-17T02:31:13.877Z,7.65
2023-12-17T02:33:40.883Z,7.62
2023-12-17T02:36:15.458Z,7.63
2023-12-17T02:38:42.677Z,7.61
2023-12-17T02:41:16.337Z,7.60
2023-12-17T02:43:45.911Z,7.62
2023-12-17T02:46:12.780Z,7.63
2023-12-17T02:48:43.765Z,7.65
2023-12-17T02:51:10.913Z,7.68
2023-12-17T02:53:37.843Z,7.73
2023-12-17T02:56:05.338Z,7.65
2023-12-17T02:58:35.142Z,7.63
2023-12-17T03:01:02.052Z,7.61
2023-12-17T03:03:28.962Z,7.67
2023-12-17T03:05:56.253Z,7.63
2023-12-17T03:08:25.022Z,7.55
2023-12-17T03:10:51.872Z,7.53
2023-12-17T03:13:20.994Z,7.56
2023-12-17T03:15:51.544Z,7.60
2023-12-17T03:18:27.027Z,7.62
2023-12-17T03:20:54.020Z,7.59
2023-12-17T03:23:20.915Z,7.68
2023-12-17T03:25:47.689Z,7.64
2023-12-17T03:28:19.132Z,7.65
2023-12-17T03:30:49.716Z,7.67
2023-12-17T03:33:17.442Z,7.71
2023-12-17T03:35:44.409Z,7.69
2023-12-17T03:38:11.265Z,7.70
2023-12-17T03:40:39.131Z,7.70
2023-12-17T03:43:08.032Z,7.66
2023-12-17T03:45:35.449Z,7.70
2023-12-17T03:48:03.123Z,7.70
2023-12-17T03:50:29.958Z,7.70
2023-12-17T03:52:59.757Z,7.66
2023-12-17T03:55:32.943Z,7.64
2023-12-17T03:58:00.102Z,7.63
2023-12-17T04:00:27.095Z,7.62
2023-12-17T04:03:02.556Z,7.59
2023-12-17T04:05:30.088Z,7.60
2023-12-17T04:07:57.597Z,7.57
2023-12-17T04:10:28.330Z,7.59
2023-12-17T04:12:55.175Z,7.60
2023-12-17T04:15:30.269Z,7.55
2023-12-17T04:17:57.295Z,7.55
2023-12-17T04:20:24.175Z,7.47
2023-12-17T04:22:50.970Z,7.51
2023-12-17T04:25:17.749Z,7.44
2023-12-17T04:27:44.872Z,7.43
2023-12-17T04:30:12.264Z,7.49
2023-12-17T04:32:42.153Z,7.43
2023-12-17T04:35:09.862Z,7.47
2023-12-17T04:37:42.952Z,7.47
2023-12-17T04:40:15.230Z,7.49
2023-12-17T04:42:44.763Z,7.51
2023-12-17T04:45:11.683Z,7.49
2023-12-17T04:47:38.937Z,7.47
2023-12-17T04:50:07.054Z,7.43
2023-12-17T04:52:36.451Z,7.32
2023-12-17T04:55:03.806Z,7.32
2023-12-17T04:57:39.766Z,7.28
2023-12-17T05:00:08.875Z,7.32
2023-12-17T05:02:35.781Z,7.37
2023-12-17T05:05:03.176Z,7.28
2023-12-17T05:07:30.072Z,7.33
2023-12-17T05:09:56.929Z,7.38
2023-12-17T05:12:23.744Z,7.32
2023-12-17T05:14:50.709Z,7.30
2023-12-17T05:17:18.538Z,7.24
2023-12-17T05:19:48.802Z,7.17
2023-12-17T05:22:15.835Z,7.18
2023-12-17T05:24:45.541Z,7.26
2023-12-17T05:27:12.419Z,7.25
2023-12-17T05:29:39.288Z,7.22
2023-12-17T05:32:06.233Z,7.26
2023-12-17T05:34:33.252Z,7.31
2023-12-17T05:37:03.362Z,7.30
2023-12-17T05:39:30.237Z,7.30
2023-12-17T05:41:57.102Z,7.27
2023-12-17T05:44:37.529Z,7.26
2023-12-17T05:47:10.477Z,7.27
2023-12-17T05:49:40.769Z,7.29
2023-12-17T05:52:09.888Z,7.24
2023-12-17T05:54:40.890Z,7.27
2023-12-17T05:57:09.738Z,7.25
2023-12-17T05:59:36.701Z,7.16
2023-12-17T06:02:03.689Z,7.20
2023-12-17T06:04:30.599Z,7.18
2023-12-17T06:06:57.621Z,7.22
2023-12-17T06:09:38.854Z,7.20
2023-12-17T06:12:08.973Z,7.19
2023-12-17T06:14:35.959Z,7.18
2023-12-17T06:17:10.320Z,7.17
2023-12-17T06:19:38.437Z,7.12
2023-12-17T06:22:05.654Z,7.09
2023-12-17T06:24:32.661Z,7.10
2023-12-17T06:27:01.228Z,7.09
2023-12-17T06:29:28.149Z,7.12
2023-12-17T06:31:54.944Z,7.08
2023-12-17T06:34:21.891Z,7.09
2023-12-17T06:36:50.456Z,7.03
2023-12-17T06:39:17.263Z,6.93
2023-12-17T06:41:44.523Z,6.95
2023-12-17T06:44:12.257Z,6.88
2023-12-17T06:46:40.397Z,6.97
2023-12-17T06:49:07.614Z,7.04
2023-12-17T06:51:39.056Z,7.02
2023-12-17T06:54:06.164Z,7.01
2023-12-17T06:56:33.098Z,7.03
2023-12-17T06:58:59.937Z,7.04
2023-12-17T07:01:38.855Z,7.09
2023-12-17T07:04:06.143Z,7.07
2023-12-17T07:06:33.282Z,7.09
2023-12-17T07:09:00.148Z,7.11
2023-12-17T07:11:27.042Z,7.12
2023-12-17T07:13:58.643Z,7.06
2023-12-17T07:16:29.135Z,7.06
2023-12-17T07:18:56.568Z,7.12
2023-12-17T07:21:23.664Z,7.14
2023-12-17T07:23:53.185Z,7.12
2023-12-17T07:26:23.162Z,7.16
2023-12-17T07:28:50.317Z,7.19
2023-12-17T07:31:17.344Z,7.23
2023-12-17T07:33:45.293Z,7.25
2023-12-17T07:36:12.283Z,7.30
2023-12-17T07:38:45.046Z,7.24
2023-12-17T07:41:12.063Z,7.23
2023-12-17T07:43:39.180Z,7.27
2023-12-17T07:46:06.113Z,7.33
2023-12-17T07:48:33.160Z,7.38
2023-12-17T07:51:03.542Z,7.36
2023-12-17T07:53:30.388Z,7.38
2023-12-17T07:55:57.253Z,7.44
2023-12-17T07:58:28.090Z,7.41
2023-12-17T08:00:55.038Z,7.42
2023-12-17T08:03:25.392Z,7.51
2023-12-17T08:05:52.736Z,7.50
2023-12-17T08:08:21.299Z,7.55
2023-12-17T08:10:48.256Z,7.59
2023-12-17T08:13:17.537Z,7.51
2023-12-17T08:15:46.614Z,7.55
2023-12-17T08:18:13.881Z,7.58
2023-12-17T08:20:43.551Z,7.62
2023-12-17T08:23:10.607Z,7.60
2023-12-17T08:25:37.413Z,7.60
2023-12-17T08:28:04.225Z,7.62
2023-12-17T08:30:31.094Z,7.59
2023-12-17T08:32:58.016Z,7.61
2023-12-17T08:35:24.921Z,7.61
2023-12-17T08:37:51.896Z,7.62
2023-12-17T08:40:26.147Z,7.64
2023-12-17T08:42:52.994Z,7.70
2023-12-17T08:45:21.776Z,7.74
2023-12-17T08:47:53.017Z,7.74
2023-12-17T08:50:20.324Z,7.80
2023-12-17T08:52:47.218Z,7.79
2023-12-17T08:55:14.416Z,7.65
2023-12-17T08:57:41.641Z,7.70
2023-12-17T09:00:09.168Z,7.74
2023-12-17T09:02:36.167Z,7.72
2023-12-17T09:05:04.332Z,7.74
2023-12-17T09:07:33.635Z,7.83
2023-12-17T09:10:00.787Z,7.91
2023-12-17T09:12:28.281Z,7.96
2023-12-17T09:14:56.844Z,7.93
2023-12-17T09:17:29.485Z,7.95
2023-12-17T09:19:59.482Z,8.00
2023-12-17T09:22:26.405Z,7.99
2023-12-17T09:24:53.481Z,8.02
2023-12-17T09:27:29.198Z,8.08
2023-12-17T09:29:56.189Z,8.07
2023-12-17T09:32:23.121Z,8.03
2023-12-17T09:34:52.944Z,8.07
2023-12-17T09:37:21.471Z,8.04
2023-12-17T09:39:48.291Z,8.10
2023-12-17T09:42:22.258Z,8.12
2023-12-17T09:44:52.823Z,8.15
2023-12-17T09:47:22.686Z,8.23
2023-12-17T09:49:49.699Z,8.25
2023-12-17T09:52:27.860Z,8.31
2023-12-17T09:54:56.808Z,8.42
2023-12-17T09:57:30.148Z,8.37
2023-12-17T10:00:05.352Z,8.54
2023-12-17T10:02:38.985Z,8.49
2023-12-17T10:05:16.132Z,8.51
2023-12-17T10:07:43.353Z,8.60
2023-12-17T10:10:10.506Z,8.57
2023-12-17T10:12:37.554Z,8.48
2023-12-17T10:15:04.935Z,8.59
2023-12-17T10:17:35.073Z,8.70
2023-12-17T10:20:07.451Z,8.78
2023-12-17T10:22:34.382Z,8.64
2023-12-17T10:25:04.040Z,8.79
2023-12-17T10:27:32.722Z,8.82
2023-12-17T10:30:01.695Z,8.85
2023-12-17T10:32:28.563Z,8.87
2023-12-17T10:34:55.907Z,8.94
2023-12-17T10:37:23.956Z,8.90
2023-12-17T10:39:59.304Z,9.00
2023-12-17T10:42:29.441Z,8.99
2023-12-17T10:44:58.019Z,9.01
2023-12-17T10:47:26.992Z,9.06
2023-12-17T10:49:55.159Z,9.20
2023-12-17T10:52:22.773Z,9.25
2023-12-17T10:54:53.621Z,9.34
2023-12-17T10:57:25.136Z,9.21
2023-12-17T10:59:55.207Z,9.37
2023-12-17T11:02:27.207Z,9.38
2023-12-17T11:04:56.919Z,9.33
2023-12-17T11:07:37.249Z,9.39
2023-12-17T11:10:13.150Z,9.43
2023-12-17T11:12:45.824Z,9.45
2023-12-17T11:15:20.893Z,9.36
2023-12-17T11:17:54.429Z,9.47
2023-12-17T11:20:22.565Z,9.47
2023-12-17T11:23:00.309Z,9.52
2023-12-17T11:25:33.498Z,9.50
2023-12-17T11:28:01.030Z,9.51
2023-12-17T11:30:33.916Z,9.31
2023-12-17T11:33:12.842Z,9.57
2023-12-17T11:35:40.138Z,9.69
2023-12-17T11:38:09.883Z,9.62
2023-12-17T11:40:36.740Z,9.57
2023-12-17T11:43:04.128Z,9.75
2023-12-17T11:45:41.656Z,9.68
2023-12-17T11:48:19.906Z,9.75
2023-12-17T11:50:52.405Z,9.75
2023-12-17T11:53:24.520Z,9.69
2023-12-17T11:55:52.683Z,9.89
2023-12-17T11:58:22.083Z,9.83
2023-12-17T12:01:19.725Z,9.95
2023-12-17T12:03:47.375Z,10.06
2023-12-17T12:06:16.742Z,10.02
2023-12-17T12:08:48.045Z,10.02
2023-12-17T12:11:28.276Z,10.11
2023-12-17T12:14:03.246Z,10.19
2023-12-17T12:16:38.535Z,10.17
2023-12-17T12:19:08.727Z,10.15
2023-12-17T12:21:37.818Z,10.20
2023-12-17T12:24:11.093Z,10.22
2023-12-17T12:26:38.203Z,10.24
2023-12-17T12:29:06.454Z,10.11
2023-12-17T12:31:33.762Z,10.21
2023-12-17T12:34:02.674Z,10.09
2023-12-17T12:36:46.846Z,10.15
2023-12-17T12:39:18.256Z,10.21
2023-12-17T12:41:53.568Z,10.07
2023-12-17T12:44:20.614Z,10.16
2023-12-17T12:46:54.764Z,10.07
2023-12-17T12:49:26.802Z,10.14
2023-12-17T12:51:54.472Z,10.12
2023-12-17T12:54:21.443Z,10.11
2023-12-17T12:56:48.474Z,10.16
2023-12-17T12:59:22.998Z,10.20
2023-12-17T13:01:52.554Z,10.18
2023-12-17T13:04:19.953Z,10.16
2023-12-17T13:06:47.093Z,10.20
2023-12-17T13:09:17.835Z,10.20
2023-12-17T13:11:50.461Z,10.13
2023-12-17T13:14:17.356Z,10.20
2023-12-17T13:16:44.802Z,10.19
2023-12-17T13:19:14.901Z,10.17
2023-12-17T13:21:42.604Z,10.23
2023-12-17T13:24:09.574Z,10.14
2023-12-17T13:29:27.898Z,10.25
2023-12-17T13:31:58.116Z,10.28
2023-12-17T13:34:30.491Z,10.27
2023-12-17T13:37:00.420Z,10.24
2023-12-17T13:39:28.600Z,10.27
2023-12-17T13:42:02.351Z,10.25
2023-12-17T13:44:43.375Z,10.35
2023-12-17T13:47:22.157Z,10.33
2023-12-17T13:49:57.026Z,10.28
2023-12-17T13:52:28.787Z,10.18
2023-12-17T13:55:03.297Z,10.30
2023-12-17T13:57:33.795Z,10.35
2023-12-17T14:00:01.063Z,10.29
2023-12-17T14:02:37.292Z,10.29
2023-12-17T14:05:10.586Z,10.34
2023-12-17T14:07:48.891Z,10.37
2023-12-17T14:10:21.035Z,10.34
2023-12-17T14:12:55.980Z,10.31
2023-12-17T14:15:28.718Z,10.35
2023-12-17T14:18:03.314Z,10.38
2023-12-17T14:20:30.219Z,10.38
2023-12-17T14:22:59.997Z,10.38
2023-12-17T14:25:39.778Z,10.55
2023-12-17T14:28:09.607Z,10.39
2023-12-17T14:30:36.585Z,10.32
2023-12-17T14:33:11.211Z,10.32
2023-12-17T14:35:38.622Z,10.31
2023-12-17T14:38:13.433Z,10.33
2023-12-17T14:40:43.657Z,10.30
2023-12-17T14:43:10.519Z,10.31
2023-12-17T14:45:43.066Z,10.33
2023-12-17T14:48:12.598Z,10.30
2023-12-17T14:50:39.546Z,10.31
2023-12-17T14:53:15.531Z,10.23
2023-12-17T14:55:43.117Z,10.20
2023-12-17T14:58:09.931Z,10.22
2023-12-17T15:00:36.861Z,10.28
2023-12-17T15:03:03.952Z,10.26
2023-12-17T15:05:30.901Z,10.33
2023-12-17T15:07:57.831Z,10.36
2023-12-17T15:10:24.651Z,10.26
2023-12-17T15:12:51.433Z,10.23
2023-12-17T15:15:21.137Z,10.23
2023-12-17T15:17:48.225Z,10.25
2023-12-17T15:20:15.272Z,10.20
2023-12-17T15:22:42.142Z,10.24
2023-12-17T15:25:09.155Z,10.21
2023-12-17T15:27:36.025Z,10.22
2023-12-17T15:30:03.243Z,10.18
2023-12-17T15:32:30.044Z,10.17
2023-12-17T15:34:57.105Z,10.15
2023-12-17T15:37:23.962Z,10.12
2023-12-17T15:39:50.779Z,10.09
2023-12-17T15:42:20.469Z,10.05
2023-12-17T15:44:47.575Z,10.00
2023-12-17T15:47:14.366Z,9.99
2023-12-17T15:49:41.202Z,9.91
2023-12-17T15:52:08.161Z,9.89
2023-12-17T15:54:35.178Z,9.85
2023-12-17T15:57:02.543Z,9.83
2023-12-17T15:59:29.332Z,9.79
2023-12-17T16:01:56.116Z,9.77
2023-12-17T16:04:22.923Z,9.73
2023-12-17T16:06:49.742Z,9.73
2023-12-17T16:09:16.674Z,9.68
2023-12-17T16:11:43.783Z,9.65
2023-12-17T16:14:10.717Z,9.60
2023-12-17T16:16:37.682Z,9.57
2023-12-17T16:19:04.723Z,9.56
2023-12-17T16:21:39.286Z,9.51
2023-12-17T16:24:14.524Z,9.52
2023-12-17T16:26:49.480Z,9.48
2023-12-17T16:29:22.151Z,9.47
2023-12-17T16:31:48.966Z,9.47
2023-12-17T16:34:16.038Z,9.39
2023-12-17T16:36:48.957Z,9.39
2023-12-17T16:39:17.253Z,9.34
2023-12-17T16:53:31.556Z,9.66
2023-12-17T16:55:58.583Z,9.60
2023-12-17T16:58:25.628Z,9.59
2023-12-17T17:00:55.663Z,9.52
2023-12-17T17:03:22.676Z,9.45
2023-12-17T17:05:49.846Z,9.41
2023-12-17T17:08:17.795Z,9.41
2023-12-17T17:10:49.522Z,9.34
2023-12-17T17:13:25.219Z,9.27
2023-12-17T17:15:54.387Z,9.24
2023-12-17T17:18:25.294Z,9.20
2023-12-17T17:20:59.325Z,9.18
2023-12-17T17:23:32.652Z,9.16
2023-12-17T17:26:09.293Z,9.12
2023-12-17T17:28:44.466Z,9.10
2023-12-17T17:31:11.696Z,9.06
2023-12-17T17:33:39.513Z,9.08
2023-12-17T17:36:10.340Z,9.09
2023-12-17T17:38:48.219Z,9.08
2023-12-17T17:41:20.845Z,9.05
2023-12-17T17:43:47.821Z,9.04
2023-12-17T17:46:14.717Z,9.02
2023-12-17T17:48:45.879Z,8.99
2023-12-17T17:51:16.132Z,9.00
2023-12-17T17:53:43.351Z,8.99
2023-12-17T17:56:12.861Z,9.01
2023-12-17T17:58:46.675Z,8.95
2023-12-17T18:01:17.471Z,8.94
2023-12-17T18:03:44.400Z,8.95
2023-12-17T18:06:11.824Z,8.90
2023-12-17T18:08:41.723Z,8.87
2023-12-17T18:11:08.538Z,8.87
2023-12-17T18:13:37.262Z,8.84
2023-12-17T18:16:04.403Z,8.82
2023-12-17T18:18:31.448Z,8.79
2023-12-17T18:20:58.340Z,8.80
2023-12-17T18:23:28.235Z,8.80
2023-12-17T18:25:55.044Z,8.78
2023-12-17T18:28:21.944Z,8.79
2023-12-17T18:30:48.821Z,8.75
2023-12-17T18:33:15.941Z,8.70
2023-12-17T18:35:48.051Z,8.71
2023-12-17T18:38:17.438Z,8.71
2023-12-17T18:40:46.928Z,8.68
2023-12-17T18:43:13.821Z,8.61
2023-12-17T18:45:41.030Z,8.57
2023-12-17T18:48:08.313Z,8.55
2023-12-17T18:50:35.271Z,8.52
2023-12-17T18:53:04.546Z,8.46
2023-12-17T18:55:35.393Z,8.46
2023-12-17T18:58:11.434Z,8.45
2023-12-17T19:00:38.472Z,8.42
2023-12-17T19:03:05.638Z,8.39
2023-12-17T19:05:33.000Z,8.36
2023-12-17T19:08:01.338Z,8.27
2023-12-17T19:10:28.179Z,8.27
2023-12-17T19:12:54.991Z,8.27
2023-12-17T19:15:22.124Z,8.26
2023-12-17T19:17:49.146Z,8.22
2023-12-17T19:20:19.909Z,8.20
2023-12-17T19:22:46.833Z,8.21
2023-12-17T19:25:13.996Z,8.18
2023-12-17T19:27:40.838Z,8.14
2023-12-17T19:30:11.029Z,8.12
2023-12-17T19:32:41.069Z,8.17
2023-12-17T19:35:08.086Z,8.09
2023-12-17T19:37:35.238Z,8.06
2023-12-17T19:40:07.642Z,8.10
2023-12-17T19:42:37.048Z,8.10
2023-12-17T19:45:09.946Z,8.12
2023-12-17T19:47:37.435Z,8.07
2023-12-17T19:50:07.020Z,8.09
2023-12-17T19:52:34.399Z,8.02
2023-12-17T19:55:01.363Z,8.01
2023-12-17T19:57:28.269Z,8.02
2023-12-17T19:59:55.131Z,7.99
2023-12-17T20:02:21.939Z,7.95
2023-12-17T20:04:51.740Z,7.95
2023-12-17T20:07:18.597Z,7.97
2023-12-17T20:10:00.195Z,7.92
2023-12-17T20:12:31.116Z,7.94
2023-12-17T20:15:01.300Z,7.89
2023-12-17T20:17:28.718Z,7.89
2023-12-17T20:19:55.677Z,7.83
2023-12-17T20:22:23.661Z,7.83
2023-12-17T20:24:56.354Z,7.82
2023-12-17T20:27:23.205Z,7.82
2023-12-17T20:29:50.112Z,7.83
2023-12-17T20:32:19.272Z,7.80
2023-12-17T20:34:46.139Z,7.79
2023-12-17T20:37:13.048Z,7.76
2023-12-17T20:39:41.062Z,7.74
2023-12-17T20:42:08.109Z,7.74
2023-12-17T20:44:39.510Z,7.70
2023-12-17T20:47:17.902Z,7.75
2023-12-17T20:49:54.577Z,7.75
2023-12-17T20:52:21.525Z,7.73
2023-12-17T20:54:58.192Z,7.75
2023-12-17T20:57:28.862Z,7.74
2023-12-17T20:59:55.846Z,7.71
2023-12-17T21:02:28.235Z,7.69
2023-12-17T21:05:02.379Z,7.66
2023-12-17T21:07:38.847Z,7.64
2023-12-17T21:10:15.039Z,7.68
2023-12-17T21:12:59.481Z,7.68
2023-12-17T21:15:43.803Z,7.66
2023-12-17T21:18:25.087Z,7.63
2023-12-17T21:20:55.545Z,7.60
2023-12-17T21:23:36.516Z,7.60
2023-12-17T21:26:19.751Z,7.56
2023-12-17T21:29:05.844Z,7.56
2023-12-17T21:31:53.383Z,7.55
2023-12-17T21:34:39.159Z,7.55
2023-12-17T21:37:32.670Z,7.55
2023-12-17T21:40:10.316Z,7.51
2023-12-17T21:42:52.008Z,7.51
2023-12-17T21:45:33.967Z,7.53
2023-12-17T21:48:19.044Z,7.51
2023-12-17T21:51:01.261Z,7.51
2023-12-17T21:53:31.237Z,7.47
2023-12-17T21:56:18.143Z,7.42
2023-12-17T21:58:58.420Z,7.41
2023-12-17T22:01:34.119Z,7.40
2023-12-17T22:04:04.201Z,7.40
2023-12-17T22:06:43.138Z,7.40
2023-12-17T22:09:24.904Z,7.38
2023-12-17T22:12:01.284Z,7.40
2023-12-17T22:14:34.097Z,7.38
2023-12-17T22:17:01.538Z,7.38
2023-12-17T22:19:31.070Z,7.35
2023-12-17T22:22:01.144Z,7.31
2023-12-17T22:24:30.386Z,7.31
2023-12-17T22:27:08.092Z,7.30
2023-12-17T22:29:38.664Z,7.30
2023-12-17T22:32:06.674Z,7.31
2023-12-17T22:34:41.120Z,7.28
2023-12-17T22:37:09.797Z,7.29
2023-12-17T22:39:37.274Z,7.26
2023-12-17T22:42:04.741Z,7.20
2023-12-17T22:44:42.075Z,7.22
2023-12-17T22:47:21.881Z,7.23
2023-12-17T22:49:48.896Z,7.21
2023-12-17T22:52:18.751Z,7.22
2023-12-17T22:54:45.651Z,7.23
2023-12-17T22:57:12.612Z,7.18
2023-12-17T22:59:39.984Z,7.19
2023-12-17T23:02:09.817Z,7.16
2023-12-17T23:04:43.388Z,7.19
2023-12-17T23:07:14.778Z,7.19
2023-12-17T23:09:42.122Z,7.18
2023-12-17T23:12:08.997Z,7.14
2023-12-17T23:14:35.964Z,7.16
2023-12-17T23:17:05.380Z,7.13
2023-12-17T23:19:35.078Z,7.13
2023-12-17T23:22:01.933Z,7.10
2023-12-17T23:24:28.807Z,7.09
2023-12-17T23:26:55.770Z,7.10
2023-12-17T23:29:22.875Z,7.08
2023-12-17T23:31:49.901Z,7.05
2023-12-17T23:34:20.108Z,7.05
2023-12-17T23:36:55.836Z,7.03
2023-12-17T23:39:23.172Z,7.05
2023-12-17T23:41:52.800Z,7.04
2023-12-17T23:44:20.015Z,7.11
2023-12-17T23:46:48.964Z,7.10
2023-12-17T23:49:19.175Z,7.12
2023-12-17T23:51:46.086Z,7.08
2023-12-17T23:54:13.191Z,7.10
2023-12-17T23:56:45.575Z,7.11
2023-12-17T23:59:15.438Z,7.07
